Time,TemperatureF,DewpointF,PressureIn,WindDirection,WindDirectionDegrees,WindSpeedMPH,WindSpeedGustMPH,Humidity,HourlyPrecipIn,Conditions,Clouds,dailyrainin,SolarRadiationWatts/m^2,SoftwareType,DateUTC
2013-04-01 00:22:00,38.0,38.0,-100.00,SSW,206,2.0,4.0,100,0.00,,,0.00,0.000000,,2013-04-01 08:22:00,
2013-04-01 00:32:00,38.0,38.0,-100.00,SSW,206,2.0,4.0,100,0.00,,,0.00,0.000000,,2013-04-01 08:32:00,
2013-04-01 00:43:00,38.0,38.0,-100.00,SSW,206,2.0,4.0,100,0.00,,,0.00,0.000000,,2013-04-01 08:43:00,
2013-04-01 00:52:00,38.0,38.0,-100.00,SSW,206,2.0,4.0,100,0.00,,,0.00,0.000000,,2013-04-01 08:52:00,
2013-04-01 01:22:00,36.0,36.0,-100.00,NE,35,1.0,6.0,100,0.00,,,0.00,0.000000,,2013-04-01 09:22:00,
2013-04-01 01:33:00,36.0,36.0,-100.00,NE,35,1.0,6.0,100,0.00,,,0.00,0.000000,,2013-04-01 09:33:00,
2013-04-01 01:42:00,36.0,36.0,-100.00,NE,35,1.0,6.0,100,0.00,,,0.00,0.000000,,2013-04-01 09:42:00,
2013-04-01 01:52:00,36.0,36.0,-100.00,NE,35,1.0,6.0,100,0.00,,,0.00,0.000000,,2013-04-01 09:52:00,
2013-04-01 02:23:00,37.0,37.0,-100.00,SW,215,0.0,2.0,100,0.00,,,0.00,0.000000,,2013-04-01 10:23:00,
2013-04-01 02:33:00,37.0,37.0,-100.00,SW,215,0.0,2.0,100,0.00,,,0.00,0.000000,,2013-04-01 10:33:00,
2013-04-01 02:42:00,37.0,37.0,-100.00,SW,215,0.0,2.0,100,0.00,,,0.00,0.000000,,2013-04-01 10:42:00,
2013-04-01 02:52:00,37.0,37.0,-100.00,SW,215,0.0,2.0,100,0.00,,,0.00,0.000000,,2013-04-01 10:52:00,
2013-04-01 03:23:00,37.0,37.0,-100.00,WNW,292,1.0,4.0,100,0.00,,,0.00,0.000000,,2013-04-01 11:23:00,
2013-04-01 03:32:00,37.0,37.0,-100.00,WNW,292,1.0,4.0,100,0.00,,,0.00,0.000000,,2013-04-01 11:32:00,
2013-04-01 03:42:00,37.0,37.0,-100.00,WNW,292,1.0,4.0,100,0.00,,,0.00,0.000000,,2013-04-01 11:42:00,
2013-04-01 03:52:00,37.0,37.0,-100.00,WNW,292,1.0,4.0,100,0.00,,,0.00,0.000000,,2013-04-01 11:52:00,
2013-04-01 04:22:00,37.0,37.0,-100.00,NNE,16,2.0,4.0,100,0.00,,,0.00,0.000000,,2013-04-01 12:22:00,
2013-04-01 04:32:00,37.0,37.0,-100.00,NNE,16,2.0,4.0,100,0.00,,,0.00,0.000000,,2013-04-01 12:32:00,
2013-04-01 04:42:00,37.0,37.0,-100.00,NNE,16,2.0,4.0,100,0.00,,,0.00,0.000000,,2013-04-01 12:42:00,
2013-04-01 04:52:00,37.0,37.0,-100.00,NNE,16,2.0,4.0,100,0.00,,,0.00,0.000000,,2013-04-01 12:52:00,
2013-04-01 05:22:00,36.0,36.0,-100.00,NNW,332,1.0,5.0,100,0.00,,,0.00,0.000000,,2013-04-01 13:22:00,
2013-04-01 05:32:00,36.0,36.0,-100.00,NNW,332,1.0,5.0,100,0.00,,,0.00,0.000000,,2013-04-01 13:32:00,
2013-04-01 05:42:00,36.0,36.0,-100.00,NNW,332,1.0,5.0,100,0.00,,,0.00,0.000000,,2013-04-01 13:42:00,
2013-04-01 05:52:00,36.0,36.0,-100.00,NNW,332,1.0,5.0,100,0.00,,,0.00,0.000000,,2013-04-01 13:52:00,
2013-04-01 06:22:00,36.0,36.0,-100.00,SSW,201,0.0,4.0,100,0.00,,,0.00,0.000000,,2013-04-01 14:22:00,
2013-04-01 06:32:00,36.0,36.0,-100.00,SSW,201,0.0,4.0,100,0.00,,,0.00,0.000000,,2013-04-01 14:32:00,
2013-04-01 06:42:00,36.0,36.0,-100.00,SSW,201,0.0,4.0,100,0.00,,,0.00,0.000000,,2013-04-01 14:42:00,
2013-04-01 06:52:00,36.0,36.0,-100.00,SSW,201,0.0,4.0,100,0.00,,,0.00,0.000000,,2013-04-01 14:52:00,
2013-04-01 07:22:00,38.0,38.0,-100.00,NE,53,2.0,5.0,100,0.00,,,0.00,8.000000,,2013-04-01 15:22:00,
2013-04-01 07:33:00,38.0,38.0,-100.00,NE,53,2.0,5.0,100,0.00,,,0.00,8.000000,,2013-04-01 15:33:00,
2013-04-01 07:43:00,38.0,38.0,-100.00,NE,53,2.0,5.0,100,0.00,,,0.00,8.000000,,2013-04-01 15:43:00,
2013-04-01 07:53:00,38.0,38.0,-100.00,NE,53,2.0,5.0,100,0.00,,,0.00,8.000000,,2013-04-01 15:53:00,
2013-04-01 08:23:00,37.0,37.0,-100.00,East,81,2.0,5.0,100,0.00,,,0.00,32.000000,,2013-04-01 16:23:00,
2013-04-01 08:33:00,37.0,37.0,-100.00,East,81,2.0,5.0,100,0.00,,,0.00,32.000000,,2013-04-01 16:33:00,
2013-04-01 08:42:00,37.0,37.0,-100.00,East,81,2.0,5.0,100,0.00,,,0.00,32.000000,,2013-04-01 16:42:00,
2013-04-01 08:52:00,37.0,37.0,-100.00,East,81,2.0,5.0,100,0.00,,,0.00,32.000000,,2013-04-01 16:52:00,
2013-04-01 10:22:00,37.0,37.0,-100.00,North,3,3.0,6.0,100,-99.99,,,0.00,55.000000,,2013-04-01 18:22:00,
2013-04-01 10:32:00,37.0,37.0,-100.00,North,3,3.0,6.0,100,-99.99,,,0.00,55.000000,,2013-04-01 18:32:00,
2013-04-01 10:42:00,37.0,37.0,-100.00,North,3,3.0,6.0,100,-99.99,,,0.00,55.000000,,2013-04-01 18:42:00,
2013-04-01 10:52:00,37.0,37.0,-100.00,North,3,3.0,6.0,100,-99.99,,,0.00,55.000000,,2013-04-01 18:52:00,
2013-04-01 11:23:00,38.0,38.0,-100.00,North,358,5.0,9.0,100,0.00,,,0.00,55.000000,,2013-04-01 19:23:00,
2013-04-01 11:32:00,38.0,38.0,-100.00,North,358,5.0,9.0,100,0.00,,,0.00,55.000000,,2013-04-01 19:32:00,
2013-04-01 11:42:00,38.0,38.0,-100.00,North,358,5.0,9.0,100,0.00,,,0.00,55.000000,,2013-04-01 19:42:00,
2013-04-01 11:52:00,38.0,38.0,-100.00,North,358,5.0,9.0,100,0.00,,,0.00,55.000000,,2013-04-01 19:52:00,
2013-04-01 12:22:00,40.0,40.0,-100.00,NNW,348,10.0,16.0,100,0.00,,,0.00,201.000000,,2013-04-01 20:22:00,
2013-04-01 12:32:00,40.0,40.0,-100.00,NNW,348,10.0,16.0,100,0.00,,,0.00,201.000000,,2013-04-01 20:32:00,
2013-04-01 12:42:00,40.0,40.0,-100.00,NNW,348,10.0,16.0,100,0.00,,,0.00,201.000000,,2013-04-01 20:42:00,
2013-04-01 12:52:00,40.0,40.0,-100.00,NNW,348,10.0,16.0,100,0.00,,,0.00,201.000000,,2013-04-01 20:52:00,
2013-04-01 13:22:00,40.0,40.0,-100.00,North,351,10.0,17.0,100,0.00,,,0.00,235.000000,,2013-04-01 21:22:00,
2013-04-01 13:32:00,40.0,40.0,-100.00,North,351,10.0,17.0,100,0.00,,,0.00,235.000000,,2013-04-01 21:32:00,
2013-04-01 13:43:00,40.0,40.0,-100.00,North,351,10.0,17.0,100,0.00,,,0.00,235.000000,,2013-04-01 21:43:00,
2013-04-01 13:52:00,40.0,40.0,-100.00,North,351,10.0,17.0,100,0.00,,,0.00,235.000000,,2013-04-01 21:52:00,
2013-04-01 14:22:00,39.0,39.0,-100.00,North,6,12.0,19.0,100,0.03,,,0.03,174.000000,,2013-04-01 22:22:00,
2013-04-01 14:33:00,39.0,39.0,-100.00,North,6,12.0,19.0,100,0.03,,,0.03,174.000000,,2013-04-01 22:33:00,
2013-04-01 14:42:00,39.0,39.0,-100.00,North,6,12.0,19.0,100,0.03,,,0.03,174.000000,,2013-04-01 22:42:00,
2013-04-01 14:52:00,39.0,39.0,-100.00,North,6,12.0,19.0,100,0.03,,,0.03,174.000000,,2013-04-01 22:52:00,
2013-04-01 15:22:00,39.0,39.0,-100.00,North,8,10.0,19.0,100,0.01,,,0.04,165.000000,,2013-04-01 23:22:00,
2013-04-01 15:32:00,39.0,39.0,-100.00,North,8,10.0,19.0,100,0.01,,,0.04,165.000000,,2013-04-01 23:32:00,
2013-04-01 15:42:00,39.0,39.0,-100.00,North,8,10.0,19.0,100,0.01,,,0.04,165.000000,,2013-04-01 23:42:00,
2013-04-01 15:52:00,39.0,39.0,-100.00,North,8,10.0,19.0,100,0.01,,,0.04,165.000000,,2013-04-01 23:52:00,
2013-04-01 16:22:00,39.0,39.0,-100.00,NNE,24,8.0,14.0,100,0.01,,,0.05,125.000000,,2013-04-02 00:22:00,
2013-04-01 16:32:00,39.0,39.0,-100.00,NNE,24,8.0,14.0,100,0.01,,,0.05,125.000000,,2013-04-02 00:32:00,
2013-04-01 16:42:00,39.0,39.0,-100.00,NNE,24,8.0,14.0,100,0.01,,,0.05,125.000000,,2013-04-02 00:42:00,
2013-04-01 16:52:00,39.0,39.0,-100.00,NNE,24,8.0,14.0,100,0.01,,,0.05,125.000000,,2013-04-02 00:52:00,
2013-04-01 17:22:00,39.0,39.0,-100.00,NNE,23,8.0,14.0,100,0.00,,,0.05,141.000000,,2013-04-02 01:22:00,
2013-04-01 17:32:00,39.0,39.0,-100.00,NNE,23,8.0,14.0,100,0.00,,,0.05,141.000000,,2013-04-02 01:32:00,
2013-04-01 17:42:00,39.0,39.0,-100.00,NNE,23,8.0,14.0,100,0.00,,,0.05,141.000000,,2013-04-02 01:42:00,
2013-04-01 17:52:00,39.0,39.0,-100.00,NNE,23,8.0,14.0,100,0.00,,,0.05,141.000000,,2013-04-02 01:52:00,
2013-04-01 18:22:00,38.0,38.0,-100.00,ENE,63,6.0,14.0,100,0.00,,,0.05,103.000000,,2013-04-02 02:22:00,
2013-04-01 18:32:00,38.0,38.0,-100.00,ENE,63,6.0,14.0,100,0.00,,,0.05,103.000000,,2013-04-02 02:32:00,
2013-04-01 18:42:00,38.0,38.0,-100.00,ENE,63,6.0,14.0,100,0.00,,,0.05,103.000000,,2013-04-02 02:42:00,
2013-04-01 18:52:00,38.0,38.0,-100.00,ENE,63,6.0,14.0,100,0.00,,,0.05,103.000000,,2013-04-02 02:52:00,
2013-04-01 19:22:00,37.0,37.0,-100.00,ENE,62,5.0,14.0,99,0.00,,,0.05,57.000000,,2013-04-02 03:22:00,
2013-04-01 19:33:00,37.0,37.0,-100.00,ENE,62,5.0,14.0,99,0.00,,,0.05,57.000000,,2013-04-02 03:33:00,
2013-04-01 19:43:00,37.0,37.0,-100.00,ENE,62,5.0,14.0,99,0.00,,,0.05,57.000000,,2013-04-02 03:43:00,
2013-04-01 19:52:00,37.0,37.0,-100.00,ENE,62,5.0,14.0,99,0.00,,,0.05,57.000000,,2013-04-02 03:52:00,
2013-04-01 20:22:00,36.0,36.0,-100.00,NE,34,5.0,11.0,100,0.00,,,0.05,10.000000,,2013-04-02 04:22:00,
2013-04-01 20:32:00,36.0,36.0,-100.00,NE,34,5.0,11.0,100,0.00,,,0.05,10.000000,,2013-04-02 04:32:00,
2013-04-01 20:42:00,36.0,36.0,-100.00,NE,34,5.0,11.0,100,0.00,,,0.05,10.000000,,2013-04-02 04:42:00,
2013-04-01 20:52:00,36.0,36.0,-100.00,NE,34,5.0,11.0,100,0.00,,,0.05,10.000000,,2013-04-02 04:52:00,
2013-04-01 21:22:00,34.0,33.0,-100.00,North,3,5.0,13.0,97,0.00,,,0.05,0.000000,,2013-04-02 05:22:00,
2013-04-01 21:32:00,34.0,33.0,-100.00,North,3,5.0,13.0,97,0.00,,,0.05,0.000000,,2013-04-02 05:32:00,
2013-04-01 21:42:00,34.0,33.0,-100.00,North,3,5.0,13.0,97,0.00,,,0.05,0.000000,,2013-04-02 05:42:00,
2013-04-01 21:52:00,34.0,33.0,-100.00,North,3,5.0,13.0,97,0.00,,,0.05,0.000000,,2013-04-02 05:52:00,
2013-04-01 22:22:00,33.0,33.0,-100.00,NNE,16,5.0,8.0,100,0.00,,,0.05,0.000000,,2013-04-02 06:22:00,
2013-04-01 22:32:00,33.0,33.0,-100.00,NNE,16,5.0,8.0,100,0.00,,,0.05,0.000000,,2013-04-02 06:32:00,
2013-04-01 22:42:00,33.0,33.0,-100.00,NNE,16,5.0,8.0,100,0.00,,,0.05,0.000000,,2013-04-02 06:42:00,
2013-04-01 22:52:00,33.0,33.0,-100.00,NNE,16,5.0,8.0,100,0.00,,,0.05,0.000000,,2013-04-02 06:52:00,
2013-04-01 23:22:00,33.0,33.0,-100.00,NE,46,4.0,9.0,100,0.00,,,0.05,0.000000,,2013-04-02 07:22:00,
2013-04-01 23:32:00,33.0,33.0,-100.00,NE,46,4.0,9.0,100,0.00,,,0.05,0.000000,,2013-04-02 07:32:00,
2013-04-01 23:42:00,33.0,33.0,-100.00,NE,46,4.0,9.0,100,0.00,,,0.05,0.000000,,2013-04-02 07:42:00,
2013-04-01 23:52:00,33.0,33.0,-100.00,NE,46,4.0,9.0,100,0.00,,,0.05,0.000000,,2013-04-02 07:52:00,